sensor_id;sensor_type;location;lat;lon;timestamp;pressure;altitude;pressure_sealevel;temperature;humidity
5283;BME280;15376;48.540;9.268;2023-05-17T00:00:59;97887.34;;;5.33;100.00
5283;BME280;15376;48.540;9.268;2023-05-17T00:03:24;97884.69;;;5.23;100.00
5283;BME280;15376;48.540;9.268;2023-05-17T00:05:50;97874.47;;;5.11;100.00
5283;BME280;15376;48.540;9.268;2023-05-17T00:08:15;97888.31;;;5.22;100.00
5283;BME280;15376;48.540;9.268;2023-05-17T00:10:41;97894.72;;;5.20;100.00
5283;BME280;15376;48.540;9.268;2023-05-17T00:13:07;97884.72;;;4.94;100.00
5283;BME280;15376;48.540;9.268;2023-05-17T00:15:32;97893.44;;;5.05;100.00
5283;BME280;15376;48.540;9.268;2023-05-17T00:17:58;97895.69;;;5.09;100.00
5283;BME280;15376;48.540;9.268;2023-05-17T00:20:23;97901.06;;;5.08;100.00
5283;BME280;15376;48.540;9.268;2023-05-17T00:22:48;97908.56;;;5.12;100.00
5283;BME280;15376;48.540;9.268;2023-05-17T00:25:17;97903.16;;;5.14;100.00
5283;BME280;15376;48.540;9.268;2023-05-17T00:27:42;97898.31;;;5.09;100.00
5283;BME280;15376;48.540;9.268;2023-05-17T00:30:07;97894.16;;;5.07;100.00
5283;BME280;15376;48.540;9.268;2023-05-17T00:32:33;97903.28;;;5.12;100.00
5283;BME280;15376;48.540;9.268;2023-05-17T00:34:58;97875.56;;;4.98;100.00
5283;BME280;15376;48.540;9.268;2023-05-17T00:37:24;97903.56;;;5.09;100.00
5283;BME280;15376;48.540;9.268;2023-05-17T00:39:50;97904.41;;;5.10;100.00
5283;BME280;15376;48.540;9.268;2023-05-17T00:42:17;97897.88;;;5.04;100.00
5283;BME280;15376;48.540;9.268;2023-05-17T00:44:42;97913.00;;;5.12;100.00
5283;BME280;15376;48.540;9.268;2023-05-17T00:47:07;97888.59;;;4.90;100.00
5283;BME280;15376;48.540;9.268;2023-05-17T00:49:33;97902.97;;;4.86;100.00
5283;BME280;15376;48.540;9.268;2023-05-17T00:51:58;97911.84;;;4.85;100.00
5283;BME280;15376;48.540;9.268;2023-05-17T00:54:27;97906.59;;;4.85;100.00
5283;BME280;15376;48.540;9.268;2023-05-17T00:56:53;97910.06;;;4.95;100.00
5283;BME280;15376;48.540;9.268;2023-05-17T00:59:21;97915.88;;;4.89;100.00
5283;BME280;15376;48.540;9.268;2023-05-17T01:01:47;97917.25;;;4.74;100.00
5283;BME280;15376;48.540;9.268;2023-05-17T01:04:12;97926.22;;;4.62;100.00
5283;BME280;15376;48.540;9.268;2023-05-17T01:06:38;97913.16;;;4.51;100.00
5283;BME280;15376;48.540;9.268;2023-05-17T01:09:04;97924.66;;;4.50;100.00
5283;BME280;15376;48.540;9.268;2023-05-17T01:11:47;97932.53;;;4.50;100.00
5283;BME280;15376;48.540;9.268;2023-05-17T01:14:40;97921.28;;;4.28;100.00
5283;BME280;15376;48.540;9.268;2023-05-17T01:17:17;97931.53;;;4.31;100.00
5283;BME280;15376;48.540;9.268;2023-05-17T01:19:54;97937.75;;;4.30;100.00
5283;BME280;15376;48.540;9.268;2023-05-17T01:22:31;97939.69;;;4.28;100.00
5283;BME280;15376;48.540;9.268;2023-05-17T01:27:49;97945.25;;;4.45;100.00
5283;BME280;15376;48.540;9.268;2023-05-17T01:30:18;97924.75;;;4.29;100.00
5283;BME280;15376;48.540;9.268;2023-05-17T01:32:44;97936.88;;;4.20;100.00
5283;BME280;15376;48.540;9.268;2023-05-17T01:35:10;97931.03;;;4.17;100.00
5283;BME280;15376;48.540;9.268;2023-05-17T01:37:38;97941.63;;;4.06;100.00
5283;BME280;15376;48.540;9.268;2023-05-17T01:40:06;97955.53;;;4.17;100.00
5283;BME280;15376;48.540;9.268;2023-05-17T01:42:33;97959.31;;;4.24;100.00
5283;BME280;15376;48.540;9.268;2023-05-17T01:48:14;97964.31;;;4.27;100.00
5283;BME280;15376;48.540;9.268;2023-05-17T01:50:46;97961.63;;;4.18;100.00
5283;BME280;15376;48.540;9.268;2023-05-17T01:53:19;97960.53;;;4.20;100.00
5283;BME280;15376;48.540;9.268;2023-05-17T01:55:49;97967.63;;;4.29;100.00
5283;BME280;15376;48.540;9.268;2023-05-17T01:58:17;97962.47;;;4.18;100.00
5283;BME280;15376;48.540;9.268;2023-05-17T02:00:45;97963.75;;;4.03;100.00
5283;BME280;15376;48.540;9.268;2023-05-17T02:03:13;97962.44;;;3.88;100.00
5283;BME280;15376;48.540;9.268;2023-05-17T02:05:41;97961.53;;;3.78;100.00
5283;BME280;15376;48.540;9.268;2023-05-17T02:08:06;97971.81;;;3.81;100.00
5283;BME280;15376;48.540;9.268;2023-05-17T02:10:31;97970.13;;;3.80;100.00
5283;BME280;15376;48.540;9.268;2023-05-17T02:12:56;97961.22;;;3.71;100.00
5283;BME280;15376;48.540;9.268;2023-05-17T02:15:22;97970.75;;;3.72;100.00
5283;BME280;15376;48.540;9.268;2023-05-17T02:17:47;97970.69;;;3.62;100.00
5283;BME280;15376;48.540;9.268;2023-05-17T02:20:13;97968.84;;;3.53;100.00
5283;BME280;15376;48.540;9.268;2023-05-17T02:22:38;97964.47;;;3.63;100.00
5283;BME280;15376;48.540;9.268;2023-05-17T02:25:04;97988.00;;;3.65;100.00
5283;BME280;15376;48.540;9.268;2023-05-17T02:27:30;97975.19;;;3.51;100.00
5283;BME280;15376;48.540;9.268;2023-05-17T02:29:55;97979.41;;;3.42;100.00
5283;BME280;15376;48.540;9.268;2023-05-17T02:32:20;97966.78;;;3.36;100.00
5283;BME280;15376;48.540;9.268;2023-05-17T02:34:46;97973.44;;;3.40;100.00
5283;BME280;15376;48.540;9.268;2023-05-17T02:37:11;97962.94;;;3.19;100.00
5283;BME280;15376;48.540;9.268;2023-05-17T02:39:36;97952.97;;;3.23;100.00
5283;BME280;15376;48.540;9.268;2023-05-17T02:42:02;97990.25;;;3.49;100.00
5283;BME280;15376;48.540;9.268;2023-05-17T02:44:27;97981.81;;;3.34;100.00
5283;BME280;15376;48.540;9.268;2023-05-17T02:46:52;97991.16;;;3.27;100.00
5283;BME280;15376;48.540;9.268;2023-05-17T02:49:18;97978.78;;;3.18;100.00
5283;BME280;15376;48.540;9.268;2023-05-17T02:51:43;97969.66;;;3.01;100.00
5283;BME280;15376;48.540;9.268;2023-05-17T02:54:08;97975.63;;;3.03;100.00
5283;BME280;15376;48.540;9.268;2023-05-17T02:56:34;97989.09;;;2.98;100.00
5283;BME280;15376;48.540;9.268;2023-05-17T02:58:59;97979.00;;;2.83;100.00
5283;BME280;15376;48.540;9.268;2023-05-17T03:01:26;97979.69;;;2.96;100.00
5283;BME280;15376;48.540;9.268;2023-05-17T03:03:51;97983.63;;;2.90;100.00
5283;BME280;15376;48.540;9.268;2023-05-17T03:06:17;97980.75;;;3.05;100.00
5283;BME280;15376;48.540;9.268;2023-05-17T03:08:42;97995.28;;;3.09;100.00
5283;BME280;15376;48.540;9.268;2023-05-17T03:11:07;98004.84;;;2.98;100.00
5283;BME280;15376;48.540;9.268;2023-05-17T03:13:33;97990.06;;;2.86;100.00
5283;BME280;15376;48.540;9.268;2023-05-17T03:15:58;97997.69;;;2.89;100.00
5283;BME280;15376;48.540;9.268;2023-05-17T03:18:23;98008.66;;;3.06;100.00
5283;BME280;15376;48.540;9.268;2023-05-17T03:20:49;98008.63;;;3.17;100.00
5283;BME280;15376;48.540;9.268;2023-05-17T03:23:15;98018.16;;;3.18;100.00
5283;BME280;15376;48.540;9.268;2023-05-17T03:25:40;98008.63;;;3.17;100.00
5283;BME280;15376;48.540;9.268;2023-05-17T03:28:06;97996.72;;;3.01;100.00
5283;BME280;15376;48.540;9.268;2023-05-17T03:30:31;98000.06;;;3.04;100.00
5283;BME280;15376;48.540;9.268;2023-05-17T03:32:56;98017.44;;;3.16;100.00
5283;BME280;15376;48.540;9.268;2023-05-17T03:35:22;98000.31;;;3.00;100.00
5283;BME280;15376;48.540;9.268;2023-05-17T03:37:47;98007.69;;;3.07;100.00
5283;BME280;15376;48.540;9.268;2023-05-17T03:40:12;98019.84;;;3.08;100.00
5283;BME280;15376;48.540;9.268;2023-05-17T03:42:38;98011.03;;;3.09;100.00
5283;BME280;15376;48.540;9.268;2023-05-17T03:45:03;98019.97;;;3.06;100.00
5283;BME280;15376;48.540;9.268;2023-05-17T03:47:29;98016.28;;;2.97;100.00
5283;BME280;15376;48.540;9.268;2023-05-17T03:49:54;98019.50;;;3.01;100.00
5283;BME280;15376;48.540;9.268;2023-05-17T03:52:20;98011.41;;;2.93;100.00
5283;BME280;15376;48.540;9.268;2023-05-17T03:54:45;98022.25;;;2.99;100.00
5283;BME280;15376;48.540;9.268;2023-05-17T03:57:10;98032.50;;;2.91;100.00
5283;BME280;15376;48.540;9.268;2023-05-17T03:59:36;98020.13;;;2.82;100.00
5283;BME280;15376;48.540;9.268;2023-05-17T04:02:01;98032.28;;;2.83;100.00
5283;BME280;15376;48.540;9.268;2023-05-17T04:04:26;98002.94;;;2.89;100.00
5283;BME280;15376;48.540;9.268;2023-05-17T04:06:52;98022.50;;;2.96;100.00
5283;BME280;15376;48.540;9.268;2023-05-17T04:09:17;98033.81;;;2.97;100.00
5283;BME280;15376;48.540;9.268;2023-05-17T04:11:42;98035.84;;;2.93;100.00
5283;BME280;15376;48.540;9.268;2023-05-17T04:14:08;98038.72;;;2.90;100.00
5283;BME280;15376;48.540;9.268;2023-05-17T04:16:33;98038.13;;;2.87;100.00
5283;BME280;15376;48.540;9.268;2023-05-17T04:18:59;98044.66;;;2.92;100.00
5283;BME280;15376;48.540;9.268;2023-05-17T04:21:25;98050.63;;;2.94;100.00
5283;BME280;15376;48.540;9.268;2023-05-17T04:23:50;98050.88;;;3.03;100.00
5283;BME280;15376;48.540;9.268;2023-05-17T04:26:16;98051.34;;;3.08;100.00
5283;BME280;15376;48.540;9.268;2023-05-17T04:28:41;98034.16;;;3.04;100.00
5283;BME280;15376;48.540;9.268;2023-05-17T04:31:07;98057.25;;;3.21;100.00
5283;BME280;15376;48.540;9.268;2023-05-17T04:33:32;98055.34;;;3.23;100.00
5283;BME280;15376;48.540;9.268;2023-05-17T04:35:58;98062.59;;;3.30;100.00
5283;BME280;15376;48.540;9.268;2023-05-17T04:38:23;98042.69;;;3.28;100.00
5283;BME280;15376;48.540;9.268;2023-05-17T04:40:48;98062.44;;;3.43;100.00
5283;BME280;15376;48.540;9.268;2023-05-17T04:43:14;98066.84;;;3.54;100.00
5283;BME280;15376;48.540;9.268;2023-05-17T04:45:40;98070.81;;;3.69;100.00
5283;BME280;15376;48.540;9.268;2023-05-17T04:48:05;98070.44;;;3.74;100.00
5283;BME280;15376;48.540;9.268;2023-05-17T04:50:31;98076.50;;;3.85;100.00
5283;BME280;15376;48.540;9.268;2023-05-17T04:52:56;98075.63;;;3.96;100.00
5283;BME280;15376;48.540;9.268;2023-05-17T04:55:22;98079.56;;;4.11;100.00
5283;BME280;15376;48.540;9.268;2023-05-17T04:57:47;98077.66;;;4.13;100.00
5283;BME280;15376;48.540;9.268;2023-05-17T05:00:16;98089.53;;;4.28;100.00
5283;BME280;15376;48.540;9.268;2023-05-17T05:02:43;98070.03;;;4.31;100.00
5283;BME280;15376;48.540;9.268;2023-05-17T05:05:09;98079.56;;;4.53;100.00
5283;BME280;15376;48.540;9.268;2023-05-17T05:07:35;98078.38;;;4.66;100.00
5283;BME280;15376;48.540;9.268;2023-05-17T05:10:00;98077.22;;;4.90;100.00
5283;BME280;15376;48.540;9.268;2023-05-17T05:12:26;98097.53;;;5.09;100.00
5283;BME280;15376;48.540;9.268;2023-05-17T05:14:51;98098.41;;;5.28;100.00
5283;BME280;15376;48.540;9.268;2023-05-17T05:17:17;98097.47;;;5.39;100.00
5283;BME280;15376;48.540;9.268;2023-05-17T05:19:42;98109.84;;;5.48;100.00
5283;BME280;15376;48.540;9.268;2023-05-17T05:22:08;98097.91;;;5.63;100.00
5283;BME280;15376;48.540;9.268;2023-05-17T05:24:33;98091.00;;;5.82;100.00
5283;BME280;15376;48.540;9.268;2023-05-17T05:27:01;98093.53;;;6.12;100.00
5283;BME280;15376;48.540;9.268;2023-05-17T05:29:26;98112.66;;;6.33;100.00
5283;BME280;15376;48.540;9.268;2023-05-17T05:31:52;98094.84;;;6.45;100.00
5283;BME280;15376;48.540;9.268;2023-05-17T05:34:17;98102.59;;;6.66;100.00
5283;BME280;15376;48.540;9.268;2023-05-17T05:36:42;98102.81;;;6.82;100.00
5283;BME280;15376;48.540;9.268;2023-05-17T05:39:08;98092.47;;;6.98;100.00
5283;BME280;15376;48.540;9.268;2023-05-17T05:41:37;98107.06;;;7.30;100.00
5283;BME280;15376;48.540;9.268;2023-05-17T05:44:02;98096.84;;;7.17;100.00
5283;BME280;15376;48.540;9.268;2023-05-17T05:46:28;98098.06;;;7.50;100.00
5283;BME280;15376;48.540;9.268;2023-05-17T05:48:53;98095.00;;;7.45;100.00
5283;BME280;15376;48.540;9.268;2023-05-17T05:51:18;98097.91;;;7.69;100.00
5283;BME280;15376;48.540;9.268;2023-05-17T05:53:44;98101.00;;;7.65;100.00
5283;BME280;15376;48.540;9.268;2023-05-17T05:56:09;98094.06;;;7.82;100.00
5283;BME280;15376;48.540;9.268;2023-05-17T05:58:35;98101.94;;;7.91;100.00
5283;BME280;15376;48.540;9.268;2023-05-17T06:01:00;98090.75;;;7.97;100.00
5283;BME280;15376;48.540;9.268;2023-05-17T06:03:26;98098.28;;;8.10;100.00
5283;BME280;15376;48.540;9.268;2023-05-17T06:05:51;98095.34;;;8.13;100.00
5283;BME280;15376;48.540;9.268;2023-05-17T06:08:16;98112.13;;;8.40;100.00
5283;BME280;15376;48.540;9.268;2023-05-17T06:10:42;98117.84;;;8.53;100.00
5283;BME280;15376;48.540;9.268;2023-05-17T06:13:07;98105.50;;;8.61;100.00
5283;BME280;15376;48.540;9.268;2023-05-17T06:15:33;98106.94;;;8.56;100.00
5283;BME280;15376;48.540;9.268;2023-05-17T06:17:58;98118.59;;;8.63;100.00
5283;BME280;15376;48.540;9.268;2023-05-17T06:20:23;98108.59;;;8.57;100.00
5283;BME280;15376;48.540;9.268;2023-05-17T06:22:49;98110.69;;;8.71;100.00
5283;BME280;15376;48.540;9.268;2023-05-17T06:25:14;98114.88;;;8.82;100.00
5283;BME280;15376;48.540;9.268;2023-05-17T06:27:40;98106.53;;;8.94;100.00
5283;BME280;15376;48.540;9.268;2023-05-17T06:30:06;98119.56;;;9.14;100.00
5283;BME280;15376;48.540;9.268;2023-05-17T06:32:31;98110.25;;;9.10;100.00
5283;BME280;15376;48.540;9.268;2023-05-17T06:34:56;98114.59;;;9.19;100.00
5283;BME280;15376;48.540;9.268;2023-05-17T06:37:23;98119.59;;;9.30;100.00
5283;BME280;15376;48.540;9.268;2023-05-17T06:39:50;98119.22;;;9.17;100.00
5283;BME280;15376;48.540;9.268;2023-05-17T06:42:15;98118.56;;;9.15;100.00
5283;BME280;15376;48.540;9.268;2023-05-17T06:44:41;98118.47;;;8.98;100.00
5283;BME280;15376;48.540;9.268;2023-05-17T06:47:06;98123.56;;;9.26;100.00
5283;BME280;15376;48.540;9.268;2023-05-17T06:49:32;98116.06;;;9.55;100.00
5283;BME280;15376;48.540;9.268;2023-05-17T06:51:57;98121.06;;;9.58;100.00
5283;BME280;15376;48.540;9.268;2023-05-17T06:54:28;98125.41;;;9.84;100.00
5283;BME280;15376;48.540;9.268;2023-05-17T06:56:53;98100.69;;;9.59;100.00
5283;BME280;15376;48.540;9.268;2023-05-17T06:59:18;98116.16;;;9.88;100.00
5283;BME280;15376;48.540;9.268;2023-05-17T07:01:44;98115.81;;;9.91;100.00
5283;BME280;15376;48.540;9.268;2023-05-17T07:04:09;98113.16;;;9.83;100.00
5283;BME280;15376;48.540;9.268;2023-05-17T07:06:34;98118.50;;;10.15;98.86
5283;BME280;15376;48.540;9.268;2023-05-17T07:09:00;98107.53;;;10.02;100.00
5283;BME280;15376;48.540;9.268;2023-05-17T07:11:25;98117.81;;;10.05;98.23
5283;BME280;15376;48.540;9.268;2023-05-17T07:13:50;98129.13;;;10.15;99.33
5283;BME280;15376;48.540;9.268;2023-05-17T07:16:16;98130.59;;;9.93;99.36
5283;BME280;15376;48.540;9.268;2023-05-17T07:18:41;98115.34;;;10.12;97.54
5283;BME280;15376;48.540;9.268;2023-05-17T07:21:06;98121.31;;;9.97;97.16
5283;BME280;15376;48.540;9.268;2023-05-17T07:23:32;98132.22;;;9.86;96.54
5283;BME280;15376;48.540;9.268;2023-05-17T07:25:57;98130.56;;;10.01;96.46
5283;BME280;15376;48.540;9.268;2023-05-17T07:28:23;98129.75;;;10.09;96.44
5283;BME280;15376;48.540;9.268;2023-05-17T07:30:49;98114.56;;;10.35;95.43
5283;BME280;15376;48.540;9.268;2023-05-17T07:33:14;98123.19;;;10.54;95.35
5283;BME280;15376;48.540;9.268;2023-05-17T07:35:40;98130.31;;;10.69;94.51
5283;BME280;15376;48.540;9.268;2023-05-17T07:38:05;98111.97;;;10.99;93.34
5283;BME280;15376;48.540;9.268;2023-05-17T07:40:31;98130.69;;;11.22;92.51
5283;BME280;15376;48.540;9.268;2023-05-17T07:42:56;98129.22;;;11.19;92.48
5283;BME280;15376;48.540;9.268;2023-05-17T07:45:21;98121.13;;;11.44;92.02
5283;BME280;15376;48.540;9.268;2023-05-17T07:47:47;98135.25;;;11.52;91.43
5283;BME280;15376;48.540;9.268;2023-05-17T07:50:12;98128.81;;;11.69;90.76
5283;BME280;15376;48.540;9.268;2023-05-17T07:52:37;98137.25;;;11.89;90.85
5283;BME280;15376;48.540;9.268;2023-05-17T07:55:03;98138.66;;;12.00;87.19
5283;BME280;15376;48.540;9.268;2023-05-17T07:57:30;98124.59;;;11.52;86.86
5283;BME280;15376;48.540;9.268;2023-05-17T07:59:55;98138.94;;;11.74;86.62
5283;BME280;15376;48.540;9.268;2023-05-17T08:02:20;98131.31;;;12.02;86.18
5283;BME280;15376;48.540;9.268;2023-05-17T08:04:46;98136.34;;;12.43;88.21
5283;BME280;15376;48.540;9.268;2023-05-17T08:07:11;98137.94;;;12.52;81.38
5283;BME280;15376;48.540;9.268;2023-05-17T08:09:36;98149.81;;;12.26;82.98
5283;BME280;15376;48.540;9.268;2023-05-17T08:12:02;98130.59;;;11.85;83.93
5283;BME280;15376;48.540;9.268;2023-05-17T08:14:27;98141.13;;;11.79;84.09
5283;BME280;15376;48.540;9.268;2023-05-17T08:16:53;98152.16;;;11.59;86.70
5283;BME280;15376;48.540;9.268;2023-05-17T08:19:18;98144.91;;;11.45;85.96
5283;BME280;15376;48.540;9.268;2023-05-17T08:21:43;98147.88;;;11.50;85.92
5283;BME280;15376;48.540;9.268;2023-05-17T08:24:10;98147.28;;;11.24;86.83
5283;BME280;15376;48.540;9.268;2023-05-17T08:26:36;98133.22;;;11.15;88.28
5283;BME280;15376;48.540;9.268;2023-05-17T08:29:02;98145.28;;;11.26;87.49
5283;BME280;15376;48.540;9.268;2023-05-17T08:31:29;98142.59;;;11.34;86.88
5283;BME280;15376;48.540;9.268;2023-05-17T08:33:55;98138.06;;;11.51;85.74
5283;BME280;15376;48.540;9.268;2023-05-17T08:36:20;98136.81;;;11.69;85.57
5283;BME280;15376;48.540;9.268;2023-05-17T08:38:46;98134.97;;;11.78;84.36
5283;BME280;15376;48.540;9.268;2023-05-17T08:41:11;98142.75;;;11.88;85.81
5283;BME280;15376;48.540;9.268;2023-05-17T08:43:37;98146.72;;;12.15;85.56
5283;BME280;15376;48.540;9.268;2023-05-17T08:46:02;98138.44;;;12.10;83.16
5283;BME280;15376;48.540;9.268;2023-05-17T08:48:28;98139.06;;;11.89;85.47
5283;BME280;15376;48.540;9.268;2023-05-17T08:50:58;98142.69;;;11.96;85.02
5283;BME280;15376;48.540;9.268;2023-05-17T08:53:24;98132.06;;;11.96;86.95
5283;BME280;15376;48.540;9.268;2023-05-17T08:55:52;98133.72;;;11.97;87.38
5283;BME280;15376;48.540;9.268;2023-05-17T08:58:25;98136.66;;;12.48;86.28
5283;BME280;15376;48.540;9.268;2023-05-17T09:00:51;98139.84;;;12.66;87.88
5283;BME280;15376;48.540;9.268;2023-05-17T09:03:18;98144.56;;;12.79;85.60
5283;BME280;15376;48.540;9.268;2023-05-17T09:05:49;98148.44;;;12.53;82.66
5283;BME280;15376;48.540;9.268;2023-05-17T09:08:14;98150.78;;;12.71;85.16
5283;BME280;15376;48.540;9.268;2023-05-17T09:10:40;98150.72;;;12.79;81.52
5283;BME280;15376;48.540;9.268;2023-05-17T09:13:06;98141.03;;;12.63;85.05
5283;BME280;15376;48.540;9.268;2023-05-17T09:15:32;98131.97;;;12.50;85.80
5283;BME280;15376;48.540;9.268;2023-05-17T09:17:58;98135.28;;;12.75;85.02
5283;BME280;15376;48.540;9.268;2023-05-17T09:20:25;98147.28;;;13.08;85.59
5283;BME280;15376;48.540;9.268;2023-05-17T09:22:59;98140.81;;;13.02;84.98
5283;BME280;15376;48.540;9.268;2023-05-17T09:25:27;98139.50;;;12.69;85.87
5283;BME280;15376;48.540;9.268;2023-05-17T09:27:53;98140.09;;;12.56;84.93
5283;BME280;15376;48.540;9.268;2023-05-17T09:30:18;98141.44;;;12.75;84.26
5283;BME280;15376;48.540;9.268;2023-05-17T09:32:44;98136.69;;;13.15;82.80
5283;BME280;15376;48.540;9.268;2023-05-17T09:35:12;98137.28;;;13.25;82.96
5283;BME280;15376;48.540;9.268;2023-05-17T09:37:38;98134.88;;;13.30;81.80
5283;BME280;15376;48.540;9.268;2023-05-17T09:40:05;98141.59;;;13.55;81.01
5283;BME280;15376;48.540;9.268;2023-05-17T09:42:33;98140.88;;;13.97;80.31
5283;BME280;15376;48.540;9.268;2023-05-17T09:45:03;98148.47;;;14.15;78.69
5283;BME280;15376;48.540;9.268;2023-05-17T09:47:30;98154.63;;;13.80;78.88
5283;BME280;15376;48.540;9.268;2023-05-17T09:49:59;98155.56;;;13.28;76.97
5283;BME280;15376;48.540;9.268;2023-05-17T09:52:28;98141.81;;;12.87;76.79
5283;BME280;15376;48.540;9.268;2023-05-17T09:54:59;98152.00;;;13.35;75.52
5283;BME280;15376;48.540;9.268;2023-05-17T09:57:26;98150.66;;;13.90;75.02
5283;BME280;15376;48.540;9.268;2023-05-17T09:59:54;98149.81;;;13.90;71.91
5283;BME280;15376;48.540;9.268;2023-05-17T10:02:29;98147.91;;;13.69;71.63
5283;BME280;15376;48.540;9.268;2023-05-17T10:04:57;98148.22;;;13.45;74.38
5283;BME280;15376;48.540;9.268;2023-05-17T10:07:25;98150.72;;;13.31;74.56
5283;BME280;15376;48.540;9.268;2023-05-17T10:09:52;98140.44;;;13.94;72.93
5283;BME280;15376;48.540;9.268;2023-05-17T10:12:20;98149.50;;;14.78;68.33
5283;BME280;15376;48.540;9.268;2023-05-17T10:14:47;98152.50;;;14.47;73.72
5283;BME280;15376;48.540;9.268;2023-05-17T10:17:13;98150.72;;;14.33;70.52
5283;BME280;15376;48.540;9.268;2023-05-17T10:19:39;98137.94;;;13.92;74.08
5283;BME280;15376;48.540;9.268;2023-05-17T10:22:05;98142.25;;;13.57;75.52
5283;BME280;15376;48.540;9.268;2023-05-17T10:24:31;98150.50;;;13.77;75.23
5283;BME280;15376;48.540;9.268;2023-05-17T10:26:57;98151.69;;;13.75;74.07
5283;BME280;15376;48.540;9.268;2023-05-17T10:29:24;98165.22;;;13.73;74.67
5283;BME280;15376;48.540;9.268;2023-05-17T10:31:49;98148.97;;;13.53;77.09
5283;BME280;15376;48.540;9.268;2023-05-17T10:34:17;98159.97;;;13.80;73.98
5283;BME280;15376;48.540;9.268;2023-05-17T10:36:43;98164.38;;;13.73;72.04
5283;BME280;15376;48.540;9.268;2023-05-17T10:39:08;98140.13;;;13.38;73.41
5283;BME280;15376;48.540;9.268;2023-05-17T10:41:35;98156.19;;;13.15;75.99
5283;BME280;15376;48.540;9.268;2023-05-17T10:44:03;98153.72;;;13.14;77.24
5283;BME280;15376;48.540;9.268;2023-05-17T10:46:29;98147.50;;;13.36;75.91
5283;BME280;15376;48.540;9.268;2023-05-17T10:48:57;98142.69;;;13.31;76.90
5283;BME280;15376;48.540;9.268;2023-05-17T10:51:29;98154.66;;;13.50;75.32
5283;BME280;15376;48.540;9.268;2023-05-17T10:56:29;98111.75;;;12.78;77.99
5283;BME280;15376;48.540;9.268;2023-05-17T11:04:28;98147.22;;;14.32;72.56
5283;BME280;15376;48.540;9.268;2023-05-17T11:09:41;98134.47;;;13.62;75.17
5283;BME280;15376;48.540;9.268;2023-05-17T11:14:51;98125.97;;;13.52;73.75
5283;BME280;15376;48.540;9.268;2023-05-17T11:17:19;98136.63;;;13.23;73.86
5283;BME280;15376;48.540;9.268;2023-05-17T11:20:09;98145.88;;;12.97;75.14
5283;BME280;15376;48.540;9.268;2023-05-17T11:22:49;98129.25;;;13.25;76.96
5283;BME280;15376;48.540;9.268;2023-05-17T11:25:15;98127.94;;;15.90;67.96
5283;BME280;15376;48.540;9.268;2023-05-17T11:27:46;98114.72;;;15.82;66.37
5283;BME280;15376;48.540;9.268;2023-05-17T11:32:51;98128.69;;;15.01;70.08
5283;BME280;15376;48.540;9.268;2023-05-17T11:35:18;98136.53;;;14.54;70.68
5283;BME280;15376;48.540;9.268;2023-05-17T11:37:50;98120.88;;;14.29;68.63
5283;BME280;15376;48.540;9.268;2023-05-17T11:40:24;98124.03;;;14.18;70.77
5283;BME280;15376;48.540;9.268;2023-05-17T11:43:09;98133.72;;;14.62;66.52
5283;BME280;15376;48.540;9.268;2023-05-17T11:48:10;98125.25;;;14.37;68.25
5283;BME280;15376;48.540;9.268;2023-05-17T11:50:37;98125.00;;;14.32;69.90
5283;BME280;15376;48.540;9.268;2023-05-17T11:53:04;98126.25;;;14.15;66.31
5283;BME280;15376;48.540;9.268;2023-05-17T11:55:32;98127.09;;;14.15;69.10
5283;BME280;15376;48.540;9.268;2023-05-17T11:57:57;98122.56;;;14.16;68.95
5283;BME280;15376;48.540;9.268;2023-05-17T12:00:26;98113.84;;;14.07;70.12
5283;BME280;15376;48.540;9.268;2023-05-17T12:02:51;98129.28;;;14.48;68.51
5283;BME280;15376;48.540;9.268;2023-05-17T12:05:20;98128.25;;;14.98;67.69
5283;BME280;15376;48.540;9.268;2023-05-17T12:07:46;98116.56;;;15.40;66.27
5283;BME280;15376;48.540;9.268;2023-05-17T12:10:12;98116.03;;;15.17;64.10
5283;BME280;15376;48.540;9.268;2023-05-17T12:12:39;98117.94;;;14.46;67.98
5283;BME280;15376;48.540;9.268;2023-05-17T12:15:06;98122.88;;;14.06;69.50
5283;BME280;15376;48.540;9.268;2023-05-17T12:17:36;98115.25;;;14.03;69.30
5283;BME280;15376;48.540;9.268;2023-05-17T12:20:07;98119.97;;;14.44;65.66
5283;BME280;15376;48.540;9.268;2023-05-17T12:22:32;98115.84;;;14.41;65.95
5283;BME280;15376;48.540;9.268;2023-05-17T12:24:58;98116.28;;;14.45;64.15
5283;BME280;15376;48.540;9.268;2023-05-17T12:27:24;98097.84;;;14.28;67.22
5283;BME280;15376;48.540;9.268;2023-05-17T12:29:50;98117.91;;;15.23;63.75
5283;BME280;15376;48.540;9.268;2023-05-17T12:32:15;98109.31;;;16.56;61.45
5283;BME280;15376;48.540;9.268;2023-05-17T12:34:41;98118.16;;;16.50;60.24
5283;BME280;15376;48.540;9.268;2023-05-17T12:37:06;98127.75;;;15.50;62.90
5283;BME280;15376;48.540;9.268;2023-05-17T12:39:34;98114.38;;;14.60;64.88
5283;BME280;15376;48.540;9.268;2023-05-17T12:42:00;98119.94;;;14.01;67.05
5283;BME280;15376;48.540;9.268;2023-05-17T12:44:25;98117.78;;;13.90;67.39
5283;BME280;15376;48.540;9.268;2023-05-17T12:46:52;98114.59;;;14.01;67.44
5283;BME280;15376;48.540;9.268;2023-05-17T12:49:20;98125.16;;;14.09;67.13
5283;BME280;15376;48.540;9.268;2023-05-17T12:51:46;98118.69;;;13.97;68.62
5283;BME280;15376;48.540;9.268;2023-05-17T12:54:14;98115.56;;;14.15;69.43
5283;BME280;15376;48.540;9.268;2023-05-17T12:56:48;98098.13;;;14.40;70.61
5283;BME280;15376;48.540;9.268;2023-05-17T12:59:16;98116.34;;;14.73;67.79
5283;BME280;15376;48.540;9.268;2023-05-17T13:01:49;98113.66;;;14.73;68.01
5283;BME280;15376;48.540;9.268;2023-05-17T13:04:17;98115.22;;;14.60;70.03
5283;BME280;15376;48.540;9.268;2023-05-17T13:06:52;98116.91;;;14.68;68.33
5283;BME280;15376;48.540;9.268;2023-05-17T13:09:20;98114.44;;;14.66;67.25
5283;BME280;15376;48.540;9.268;2023-05-17T13:11:50;98109.78;;;13.90;69.96
5283;BME280;15376;48.540;9.268;2023-05-17T13:14:35;98096.34;;;14.05;69.47
5283;BME280;15376;48.540;9.268;2023-05-17T13:17:07;98120.66;;;14.10;70.74
5283;BME280;15376;48.540;9.268;2023-05-17T13:19:32;98110.75;;;14.46;68.60
5283;BME280;15376;48.540;9.268;2023-05-17T13:21:59;98107.88;;;14.26;70.90
5283;BME280;15376;48.540;9.268;2023-05-17T13:24:25;98101.00;;;13.96;71.17
5283;BME280;15376;48.540;9.268;2023-05-17T13:26:52;98116.03;;;13.97;70.88
5283;BME280;15376;48.540;9.268;2023-05-17T13:29:17;98112.44;;;13.90;68.48
5283;BME280;15376;48.540;9.268;2023-05-17T13:31:43;98101.13;;;14.73;69.29